Time;durP1;ratioP1;P1;durP2;ratioP2;P2;SDS_P1;SDS_P2;PMS_P1;PMS_P2;Temp;Humidity;BMP_temperature;BMP_pressure;BME280_temperature;BME280_humidity;BME280_pressure;Samples;Min_cycle;Max_cycle;Signal;HPM_P1;HPM_P2
2022/09/23 00:01:34;;;;;;;3.80;3.53;;;;;;;20.91;37.97;95267.41;6165496;28;103068;-77
2022/09/23 00:04:38;;;;;;;4.20;3.90;;;;;;;20.90;38.34;95254.41;6165678;28;103270;-76
2022/09/23 00:07:41;;;;;;;3.83;3.63;;;;;;;20.84;38.20;95250.28;6158418;28;102784;-76
2022/09/23 00:10:46;;;;;;;3.70;3.40;;;;;;;20.86;38.09;95248.91;6165195;28;103255;-76
2022/09/23 00:13:52;;;;;;;4.10;3.80;;;;;;;20.85;38.18;95251.84;6165323;28;103272;-76
2022/09/23 00:16:55;;;;;;;4.10;3.80;;;;;;;20.87;38.15;95250.47;6164412;28;106164;-79
2022/09/23 00:19:59;;;;;;;4.00;3.70;;;;;;;20.84;38.07;95251.06;6160140;28;104241;-76
2022/09/23 00:23:02;;;;;;;4.00;3.70;;;;;;;20.86;37.92;95250.75;6165396;28;103909;-76
2022/09/23 00:26:09;;;;;;;3.90;3.60;;;;;;;20.83;38.04;95244.13;6164974;28;102799;-76
2022/09/23 00:29:12;;;;;;;3.50;3.30;;;;;;;20.86;38.13;95254.22;6158639;28;105516;-78
2022/09/23 00:32:15;;;;;;;4.10;3.80;;;;;;;20.83;38.13;95251.31;6164596;28;103102;-76
2022/09/23 00:35:18;;;;;;;4.27;3.97;;;;;;;20.84;38.38;95251.06;6165469;28;103419;-76
2022/09/23 00:38:21;;;;;;;3.80;3.50;;;;;;;20.85;38.29;95246.53;6164965;28;103104;-76
2022/09/23 00:41:26;;;;;;;4.20;3.90;;;;;;;20.82;38.21;95245.22;6157875;28;103505;-76
2022/09/23 00:44:44;;;;;;;4.00;3.70;;;;;;;20.81;38.02;95235.66;6164766;28;102756;-77
2022/09/23 00:47:53;;;;;;;3.87;3.57;;;;;;;20.83;38.08;95241.47;6165039;28;102971;-77
2022/09/23 00:50:56;;;;;;;3.60;3.40;;;;;;;20.83;38.29;95241.47;6165212;28;103399;-77
2022/09/23 00:54:00;;;;;;;3.80;3.57;;;;;;;20.83;38.03;95246.00;6159090;28;103033;-76
2022/09/23 00:57:06;;;;;;;3.80;3.50;;;;;;;20.79;37.96;95240.47;6164505;28;103212;-76
2022/09/23 01:00:11;;;;;;;3.80;3.50;;;;;;;20.81;38.13;95243.63;6164245;28;105554;-76
2022/09/23 01:03:18;;;;;;;4.40;4.00;;;;;;;20.78;38.13;95235.47;6160386;28;103546;-76
2022/09/23 01:06:21;;;;;;;3.60;3.40;;;;;;;20.78;38.16;95241.56;6168413;28;103330;-76
2022/09/23 01:09:25;;;;;;;3.70;3.50;;;;;;;20.78;38.07;95241.56;6168859;28;103671;-76
2022/09/23 01:12:44;;;;;;;3.60;3.33;;;;;;;20.75;37.89;95242.16;6168708;28;103215;-76
2022/09/23 01:15:53;;;;;;;3.83;3.53;;;;;;;20.75;38.05;95244.81;6162707;28;103350;-76
2022/09/23 01:19:04;;;;;;;3.80;3.60;;;;;;;20.77;38.07;95241.88;6169317;28;104168;-75
2022/09/23 01:22:14;;;;;;;3.90;3.60;;;;;;;20.77;38.05;95244.53;6169099;28;103247;-75
2022/09/23 01:25:42;;;;;;;4.30;4.00;;;;;;;20.79;37.82;95242.34;6165507;28;103174;-76
2022/09/23 01:29:10;;;;;;;3.40;3.20;;;;;;;20.77;37.97;95245.31;6168008;28;105078;-78
2022/09/23 01:32:24;;;;;;;3.50;3.30;;;;;;;20.70;38.07;95241.47;6168039;28;103282;-76
2022/09/23 01:35:38;;;;;;;3.77;3.57;;;;;;;20.77;38.16;95245.31;6169284;28;103055;-75
2022/09/23 01:38:46;;;;;;;4.23;3.93;;;;;;;20.75;38.18;95250.13;6161526;28;103002;-77
2022/09/23 01:42:01;;;;;;;4.17;3.93;;;;;;;20.68;37.84;95252.41;6168600;28;104524;-75
2022/09/23 01:45:11;;;;;;;3.80;3.50;;;;;;;20.77;37.88;95263.94;6168440;28;104913;-77
2022/09/23 01:48:21;;;;;;;3.33;3.13;;;;;;;20.75;37.96;95259.97;6164981;28;103002;-77
2022/09/23 01:51:31;;;;;;;3.73;3.53;;;;;;;20.72;38.20;95264.03;6167665;28;103401;-77
2022/09/23 01:54:39;;;;;;;3.60;3.30;;;;;;;20.69;38.02;95251.31;6167461;28;103305;-76
2022/09/23 01:57:47;;;;;;;4.17;3.87;;;;;;;20.68;37.94;95243.63;6167942;28;106210;-76
2022/09/23 02:00:57;;;;;;;4.10;3.80;;;;;;;20.71;37.79;95249.16;6162018;28;103986;-76
2022/09/23 02:04:07;;;;;;;3.70;3.50;;;;;;;20.70;38.11;95244.91;6166721;28;106038;-76
2022/09/23 02:07:16;;;;;;;3.57;3.37;;;;;;;20.66;38.01;95243.88;6167809;28;106163;-76
2022/09/23 02:10:24;;;;;;;4.10;3.87;;;;;;;20.59;37.79;95238.97;6166549;28;103158;-77
2022/09/23 02:13:33;;;;;;;3.90;3.70;;;;;;;20.65;37.98;95252.94;6163753;28;103010;-76
2022/09/23 02:16:43;;;;;;;3.40;3.20;;;;;;;20.68;38.04;95246.28;6166461;28;103722;-75
2022/09/23 02:19:53;;;;;;;4.10;3.80;;;;;;;20.68;37.98;95252.41;6166999;28;103390;-76
2022/09/23 02:23:03;;;;;;;3.80;3.50;;;;;;;20.67;38.03;95248.16;6161156;28;106855;-75
2022/09/23 02:26:11;;;;;;;4.03;3.73;;;;;;;20.63;37.98;95244.47;6167483;28;104248;-76
2022/09/23 02:29:20;;;;;;;3.50;3.30;;;;;;;20.64;37.95;95248.72;6167082;28;103085;-76
2022/09/23 02:32:31;;;;;;;3.50;3.30;;;;;;;20.58;37.84;95236.59;6166953;28;104030;-76
2022/09/23 02:35:47;;;;;;;3.40;3.20;;;;;;;20.63;38.05;95250.59;6158920;28;103583;-75
2022/09/23 02:38:56;;;;;;;3.90;3.50;;;;;;;20.65;37.98;95252.94;6166096;28;103000;-76
2022/09/23 02:42:05;;;;;;;3.73;3.53;;;;;;;20.60;37.98;95248.50;6165646;28;104238;-75
2022/09/23 02:45:08;;;;;;;4.10;3.80;;;;;;;20.65;37.78;95254.81;6161259;28;104032;-76
2022/09/23 02:48:17;;;;;;;3.77;3.47;;;;;;;20.63;37.89;95257.78;6165558;28;107952;-76
2022/09/23 02:51:24;;;;;;;3.70;3.40;;;;;;;20.62;38.04;95258.84;6164805;28;103704;-75
2022/09/23 02:54:28;;;;;;;3.77;3.47;;;;;;;20.62;37.62;95264.16;6164738;28;104126;-76
2022/09/23 02:57:32;;;;;;;4.03;3.73;;;;;;;20.63;37.75;95263.09;6160060;28;103521;-75
2022/09/23 03:00:50;;;;;;;3.93;3.63;;;;;;;20.63;38.11;95266.53;6165162;28;103360;-76
2022/09/23 03:03:58;;;;;;;3.30;3.10;;;;;;;20.60;37.99;95266.34;6165729;28;103606;-75
2022/09/23 03:07:11;;;;;;;3.63;3.43;;;;;;;20.61;37.58;95267.91;6164162;28;105123;-79
2022/09/23 03:10:22;;;;;;;3.70;3.50;;;;;;;20.55;38.00;95258.44;6161947;28;104544;-77
2022/09/23 03:13:35;;;;;;;4.07;3.77;;;;;;;20.58;37.80;95260.53;6165334;28;103190;-78
2022/09/23 03:16:45;;;;;;;3.70;3.50;;;;;;;20.60;37.83;95269.00;6165078;28;103115;-75
2022/09/23 03:19:55;;;;;;;3.67;3.37;;;;;;;20.53;38.27;95255.28;6160171;28;103234;-76
2022/09/23 03:23:05;;;;;;;4.10;3.80;;;;;;;20.57;38.04;95264.25;6166799;28;103301;-75
2022/09/23 03:26:13;;;;;;;3.70;3.40;;;;;;;20.56;37.92;95266.13;6166109;28;103473;-76
2022/09/23 03:29:18;;;;;;;3.90;3.63;;;;;;;20.55;37.74;95259.25;6166065;28;106807;-75
2022/09/23 03:32:26;;;;;;;3.43;3.23;;;;;;;20.52;37.78;95267.00;6160282;28;103028;-75
2022/09/23 03:36:48;;;;;;;3.57;3.37;;;;;;;20.55;37.82;95255.78;6164619;28;105543;-78
2022/09/23 03:39:03;;;;;;;3.87;3.67;;;;;;;20.55;37.98;95264.56;6164340;28;103312;-77
2022/09/23 03:42:11;;;;;;;3.57;3.37;;;;;;;20.54;38.01;95262.97;6158367;28;103510;-77
2022/09/23 03:45:17;;;;;;;3.53;3.33;;;;;;;20.55;37.92;95266.44;6164091;28;103083;-76
2022/09/23 03:48:21;;;;;;;3.23;3.03;;;;;;;20.56;37.82;95262.69;6164829;28;105141;-75
2022/09/23 03:51:24;;;;;;;3.47;3.27;;;;;;;20.55;38.10;95263.75;6164145;28;103253;-76
2022/09/23 03:54:29;;;;;;;3.60;3.30;;;;;;;20.55;38.00;95277.06;6158176;28;103598;-76
2022/09/23 03:57:32;;;;;;;3.87;3.57;;;;;;;20.52;37.78;95272.31;6164221;28;103581;-76
2022/09/23 04:00:36;;;;;;;3.57;3.37;;;;;;;20.53;37.68;95277.34;6164488;28;103501;-75
2022/09/23 04:03:40;;;;;;;3.37;3.17;;;;;;;20.44;37.93;95265.78;6162785;28;103661;-77
2022/09/23 04:06:43;;;;;;;3.47;3.27;;;;;;;20.47;37.92;95275.81;6157043;28;103077;-77
2022/09/23 04:09:47;;;;;;;3.43;3.23;;;;;;;20.51;37.66;95282.16;6163302;28;104238;-75
2022/09/23 04:12:51;;;;;;;4.10;3.80;;;;;;;20.49;37.75;95289.63;6163871;28;106557;-77
2022/09/23 04:15:54;;;;;;;3.20;3.00;;;;;;;20.52;37.89;95288.28;6159840;28;105123;-77
2022/09/23 04:18:57;;;;;;;4.40;3.30;;;;;;;20.49;37.86;95286.97;6163201;28;105425;-76
2022/09/23 04:22:00;;;;;;;3.77;3.47;;;;;;;20.49;37.69;95280.84;6163424;28;103507;-75
2022/09/23 04:25:06;;;;;;;3.20;3.00;;;;;;;20.48;37.95;95285.38;6164034;28;103533;-77
2022/09/23 04:28:09;;;;;;;3.33;3.13;;;;;;;20.48;37.77;95288.03;6156743;28;103662;-77
2022/09/23 04:31:12;;;;;;;4.20;3.90;;;;;;;20.47;37.92;95291.00;6163691;28;103549;-78
2022/09/23 04:34:16;;;;;;;3.83;3.57;;;;;;;20.44;37.61;95295.03;6163839;28;104035;-76
2022/09/23 04:37:19;;;;;;;3.27;3.07;;;;;;;20.44;37.77;95303.00;6163311;28;105267;-76
2022/09/23 04:40:24;;;;;;;3.43;3.23;;;;;;;20.47;37.81;95309.59;6156167;28;103110;-76
2022/09/23 04:43:27;;;;;;;3.87;3.57;;;;;;;20.46;37.76;95308.03;6162993;28;103691;-75
2022/09/23 04:46:30;;;;;;;3.77;3.47;;;;;;;20.46;37.90;95318.66;6163732;28;104048;-75
2022/09/23 04:49:33;;;;;;;3.53;3.33;;;;;;;20.45;37.84;95317.06;6160049;28;103325;-76
2022/09/23 04:52:36;;;;;;;3.40;3.20;;;;;;;20.46;38.01;95321.31;6159744;28;103862;-76
2022/09/23 04:55:42;;;;;;;3.43;3.23;;;;;;;20.46;38.07;95321.31;6163207;28;103442;-77
2022/09/23 04:58:46;;;;;;;3.90;3.60;;;;;;;20.43;37.83;95320.03;6163220;28;104459;-77
2022/09/23 05:01:50;;;;;;;3.67;3.37;;;;;;;20.40;37.60;95311.84;6157192;28;103369;-78
2022/09/23 05:04:54;;;;;;;3.57;3.37;;;;;;;20.43;37.62;95322.69;6163391;28;105797;-77
2022/09/23 05:07:57;;;;;;;3.67;3.37;;;;;;;20.37;37.59;95307.09;6164171;28;105574;-76
2022/09/23 05:11:04;;;;;;;3.90;3.70;;;;;;;20.43;37.81;95327.22;6162953;28;104000;-76
2022/09/23 05:14:08;;;;;;;3.50;3.20;;;;;;;20.43;37.65;95322.69;6156738;28;103021;-76
2022/09/23 05:17:11;;;;;;;4.23;3.83;;;;;;;20.43;37.55;95324.56;6163241;28;103987;-76
2022/09/23 05:20:16;;;;;;;3.90;3.60;;;;;;;20.46;37.66;95323.97;6162920;28;104323;-76
2022/09/23 05:23:19;;;;;;;3.43;3.23;;;;;;;20.38;37.65;95320.09;6162138;28;103537;-78
2022/09/23 05:26:26;;;;;;;5.80;3.87;;;;;;;20.46;37.88;95334.59;6158277;28;104990;-76
2022/09/23 05:29:30;;;;;;;3.83;3.53;;;;;;;20.45;37.71;95333.81;6162740;28;104923;-76
2022/09/23 05:32:33;;;;;;;3.80;3.60;;;;;;;20.44;37.62;95336.75;6163296;28;104678;-75
2022/09/23 05:35:36;;;;;;;3.30;3.10;;;;;;;20.49;37.51;95334.03;6157218;28;103012;-75
2022/09/23 05:38:39;;;;;;;3.87;3.57;;;;;;;20.51;37.33;95337.22;6162777;28;106473;-76
2022/09/23 05:41:45;;;;;;;4.03;3.73;;;;;;;20.52;37.37;95330.81;6161340;28;103012;-77
2022/09/23 05:44:48;;;;;;;3.90;3.60;;;;;;;20.49;37.70;95324.19;6162767;28;103313;-76
2022/09/23 05:47:51;;;;;;;3.63;3.43;;;;;;;20.52;37.56;95331.59;6156545;28;103614;-76
2022/09/23 05:50:54;;;;;;;3.77;3.47;;;;;;;20.51;37.42;95329.22;6164361;28;105955;-76
2022/09/23 05:53:58;;;;;;;3.30;3.10;;;;;;;20.56;37.48;95334.47;6166753;28;103106;-76
2022/09/23 05:57:03;;;;;;;4.03;3.73;;;;;;;20.55;37.64;95325.69;6118152;28;103202;-76
2022/09/23 06:00:09;;;;;;;3.77;3.57;;;;;;;20.59;37.19;95318.72;6112334;28;103588;-76
2022/09/23 06:03:13;;;;;;;3.90;3.60;;;;;;;20.72;37.22;95321.72;6118864;28;103139;-77
2022/09/23 06:06:19;;;;;;;3.83;3.60;;;;;;;20.80;37.07;95323.72;6118002;28;106229;-76
2022/09/23 06:09:22;;;;;;;3.77;3.47;;;;;;;20.85;37.08;95321.00;6114401;28;103494;-77
2022/09/23 06:12:26;;;;;;;4.13;3.80;;;;;;;20.92;36.59;95318.75;6114155;28;103276;-76
2022/09/23 06:15:29;;;;;;;3.63;3.43;;;;;;;21.01;36.99;95325.00;6118172;28;107534;-76
2022/09/23 06:18:32;;;;;;;3.80;3.60;;;;;;;21.10;36.42;95323.25;6117855;28;103137;-76
2022/09/23 06:21:38;;;;;;;3.53;3.30;;;;;;;21.18;36.57;95317.28;6111531;28;103398;-76
2022/09/23 06:24:41;;;;;;;3.43;3.23;;;;;;;21.30;36.19;95316.78;6117783;28;103338;-76
2022/09/23 06:27:54;;;;;;;6.53;3.63;;;;;;;21.40;36.49;95321.94;6117366;28;104523;-76
2022/09/23 06:30:58;;;;;;;3.93;3.63;;;;;;;21.56;36.17;95314.47;6117948;28;104788;-76
2022/09/23 06:34:01;;;;;;;3.40;3.20;;;;;;;21.70;35.82;95314.47;6112858;28;104397;-76
2022/09/23 06:37:13;;;;;;;3.30;3.10;;;;;;;21.75;36.29;95315.16;6117459;28;103442;-76
2022/09/23 06:40:23;;;;;;;3.67;3.47;;;;;;;21.83;36.21;95311.03;6114086;28;103428;-77
2022/09/23 06:43:28;;;;;;;4.10;3.80;;;;;;;21.92;35.85;95314.59;6113180;28;103418;-76
2022/09/23 06:46:31;;;;;;;3.57;3.37;;;;;;;22.01;35.99;95317.31;6115619;28;103345;-75
2022/09/23 06:49:35;;;;;;;3.33;3.13;;;;;;;22.02;35.93;95319.72;6117527;28;103377;-76
2022/09/23 06:52:39;;;;;;;3.63;3.37;;;;;;;22.04;35.83;95328.19;6116528;28;104164;-77
2022/09/23 06:55:43;;;;;;;3.53;3.27;;;;;;;22.16;35.59;95330.34;6136966;28;103397;-76
2022/09/23 06:58:49;;;;;;;3.37;3.17;;;;;;;22.17;35.80;95329.25;6165711;28;103652;-76
2022/09/23 07:01:52;;;;;;;3.90;3.50;;;;;;;22.26;35.65;95324.81;6165412;28;104050;-77
2022/09/23 07:04:56;;;;;;;3.13;2.93;;;;;;;22.26;36.20;95334.66;6165237;28;103598;-76
2022/09/23 07:07:59;;;;;;;3.43;3.23;;;;;;;22.20;35.96;95334.00;6159587;28;103070;-76
2022/09/23 07:11:05;;;;;;;3.40;3.20;;;;;;;22.26;35.74;95338.13;6165195;28;103371;-76
2022/09/23 07:14:10;;;;;;;3.17;2.97;;;;;;;22.27;36.21;95347.69;6164117;28;103184;-77
2022/09/23 07:17:13;;;;;;;3.33;3.13;;;;;;;22.32;35.81;95352.13;6161735;28;102813;-76
2022/09/23 07:20:16;;;;;;;3.47;3.27;;;;;;;22.35;35.78;95351.56;6162114;28;104488;-77
2022/09/23 07:23:20;;;;;;;3.10;2.90;;;;;;;22.37;36.30;95350.16;6165251;28;103112;-77
2022/09/23 07:26:24;;;;;;;3.27;3.07;;;;;;;22.37;35.86;95355.50;6164793;28;103489;-77
2022/09/23 07:29:28;;;;;;;3.07;2.87;;;;;;;22.49;36.21;95357.63;6158715;28;103075;-76
2022/09/23 07:32:47;;;;;;;3.37;3.17;;;;;;;22.48;36.11;95356.03;6164864;28;103629;-76
2022/09/23 07:35:51;;;;;;;3.23;3.03;;;;;;;22.45;36.29;95361.97;6165390;28;105062;-76
2022/09/23 07:39:00;;;;;;;3.07;2.87;;;;;;;22.45;36.25;95364.66;6164806;28;103355;-76
2022/09/23 07:42:04;;;;;;;3.37;3.17;;;;;;;22.45;36.09;95364.66;6159035;28;103340;-76
2022/09/23 07:45:10;;;;;;;3.20;3.00;;;;;;;22.44;36.41;95365.75;6163975;28;103576;-77
2022/09/23 07:48:13;;;;;;;3.53;3.33;;;;;;;22.54;35.71;95375.41;6164140;28;103358;-75
2022/09/23 07:51:18;;;;;;;3.23;3.03;;;;;;;22.46;36.48;95360.91;6160911;28;103203;-76
2022/09/23 07:54:24;;;;;;;3.23;3.03;;;;;;;22.51;36.01;95366.09;6161002;28;103592;-77
2022/09/23 07:57:27;;;;;;;3.20;3.00;;;;;;;22.46;36.15;95363.56;6164240;28;105593;-77
2022/09/23 08:00:35;;;;;;;2.80;2.60;;;;;;;22.42;36.49;95360.72;6164064;28;103320;-77
2022/09/23 08:03:38;;;;;;;2.90;2.70;;;;;;;22.45;36.35;95356.66;6158138;28;106262;-76
2022/09/23 08:06:42;;;;;;;3.40;3.20;;;;;;;22.46;36.22;95363.56;6164320;28;103525;-76
2022/09/23 08:09:46;;;;;;;3.50;3.30;;;;;;;22.40;36.10;95351.44;6163841;28;104299;-77
2022/09/23 08:12:49;;;;;;;3.30;3.10;;;;;;;22.53;36.22;95363.16;6163439;28;103565;-76
2022/09/23 08:15:53;;;;;;;2.90;2.70;;;;;;;22.50;36.13;95364.53;6156331;28;103092;-78
2022/09/23 08:18:57;;;;;;;3.03;2.83;;;;;;;22.59;36.06;95357.44;6164243;28;103159;-76
2022/09/23 08:22:01;;;;;;;3.53;3.13;;;;;;;22.61;36.20;95357.13;6163975;28;104391;-76
2022/09/23 08:25:05;;;;;;;3.07;2.87;;;;;;;22.59;36.07;95349.44;6161014;28;103114;-77
2022/09/23 08:28:14;;;;;;;3.27;3.07;;;;;;;22.60;36.64;95352.88;6160427;28;103110;-78
2022/09/23 08:31:19;;;;;;;3.07;2.83;;;;;;;22.62;36.56;95350.72;6163865;28;104250;-77
2022/09/23 08:34:23;;;;;;;3.10;2.90;;;;;;;22.63;35.97;95345.06;6163548;28;104357;-77
2022/09/23 08:37:26;;;;;;;3.20;3.00;;;;;;;22.69;36.63;95343.88;6157555;28;103030;-77
2022/09/23 08:40:29;;;;;;;3.13;2.83;;;;;;;22.61;36.07;95349.13;6163652;28;107601;-76
2022/09/23 08:43:35;;;;;;;2.70;2.50;;;;;;;22.46;36.25;95339.56;6163748;28;103065;-79
2022/09/23 08:46:45;;;;;;;3.03;2.83;;;;;;;22.59;36.44;95349.44;6162371;28;105501;-76
2022/09/23 08:50:00;;;;;;;3.30;3.10;;;;;;;22.62;36.31;95346.16;6157642;28;104308;-76
2022/09/23 08:53:08;;;;;;;3.17;2.90;;;;;;;22.48;36.54;95350.72;6163142;28;103547;-76
2022/09/23 08:56:15;;;;;;;3.37;3.13;;;;;;;22.49;36.46;95352.28;6162646;28;104890;-76
2022/09/23 08:59:27;;;;;;;3.47;3.17;;;;;;;22.59;36.35;95340.66;6160679;28;103431;-77
2022/09/23 09:02:35;;;;;;;3.13;2.93;;;;;;;22.61;36.58;95338.47;6160130;28;103474;-77
2022/09/23 09:05:40;;;;;;;3.17;2.97;;;;;;;22.57;36.88;95337.50;6163667;28;103044;-76
2022/09/23 09:08:48;;;;;;;2.67;2.47;;;;;;;22.55;36.42;95332.44;6163353;28;104775;-76
2022/09/23 09:11:57;;;;;;;3.37;3.17;;;;;;;22.60;36.49;95337.69;6156444;28;104504;-77
2022/09/23 09:15:05;;;;;;;3.13;2.93;;;;;;;22.46;36.74;95320.09;6163529;28;105333;-77
2022/09/23 09:18:17;;;;;;;3.40;3.10;;;;;;;22.54;36.46;95352.19;6162141;28;105012;-76
2022/09/23 09:21:24;;;;;;;2.90;2.70;;;;;;;22.55;36.77;95351.09;6162796;28;104424;-76
2022/09/23 09:24:34;;;;;;;3.13;2.93;;;;;;;22.59;36.30;95348.66;6157808;28;104619;-78
2022/09/23 09:27:40;;;;;;;3.37;3.17;;;;;;;22.53;36.46;95339.16;6167150;28;103189;-77
2022/09/23 09:30:44;;;;;;;3.40;3.20;;;;;;;22.64;36.49;95338.66;6166824;28;103397;-76
2022/09/23 09:33:57;;;;;;;3.70;3.40;;;;;;;22.68;36.44;95333.50;6161888;28;104588;-77
2022/09/23 09:37:04;;;;;;;3.43;3.20;;;;;;;22.62;36.48;95338.16;6167042;28;103677;-77
2022/09/23 09:40:12;;;;;;;3.10;2.90;;;;;;;22.63;36.82;95337.06;6167240;28;103135;-77
2022/09/23 09:43:22;;;;;;;3.10;2.90;;;;;;;22.56;36.36;95343.91;6166866;28;105834;-76
2022/09/23 09:46:46;;;;;;;3.40;3.20;;;;;;;22.51;36.61;95347.44;6160744;28;107135;-76
2022/09/23 09:49:57;;;;;;;3.30;3.10;;;;;;;22.54;36.76;95341.53;6165652;28;103726;-76
2022/09/23 09:53:15;;;;;;;3.10;2.90;;;;;;;22.56;36.36;95333.22;6166905;28;102946;-76
2022/09/23 09:56:21;;;;;;;3.77;3.47;;;;;;;22.57;36.77;95332.16;6163440;28;104652;-76
2022/09/23 09:59:28;;;;;;;2.90;2.70;;;;;;;22.59;36.54;95329.97;6164852;28;104104;-75
2022/09/23 10:02:35;;;;;;;3.30;3.10;;;;;;;22.56;36.44;95343.91;6165985;28;103370;-76
2022/09/23 10:05:51;;;;;;;3.20;3.00;;;;;;;22.56;36.51;95333.22;6166890;28;104111;-76
2022/09/23 10:09:18;;;;;;;3.30;3.10;;;;;;;22.57;36.77;95327.63;6160124;28;105224;-76
2022/09/23 10:12:23;;;;;;;3.30;3.10;;;;;;;22.57;36.57;95326.81;6152409;28;105505;-76
2022/09/23 10:15:32;;;;;;;3.00;2.80;;;;;;;22.55;36.35;95329.78;6166579;28;105984;-76
2022/09/23 10:18:38;;;;;;;3.20;3.00;;;;;;;22.57;36.38;95334.81;6163751;28;102860;-75
2022/09/23 10:21:43;;;;;;;3.20;3.00;;;;;;;22.51;36.55;95315.44;6161403;28;105932;-75
2022/09/23 10:24:50;;;;;;;3.37;3.13;;;;;;;22.53;36.38;95315.94;6166043;28;103089;-75
2022/09/23 10:27:53;;;;;;;3.13;2.90;;;;;;;22.51;36.44;95314.66;6166487;28;104974;-77
2022/09/23 10:31:05;;;;;;;3.33;3.13;;;;;;;22.48;36.99;95310.72;6159234;28;105371;-77
2022/09/23 10:34:23;;;;;;;2.93;2.73;;;;;;;22.46;36.69;95304.88;6166287;28;103479;-77
2022/09/23 10:37:45;;;;;;;3.37;3.13;;;;;;;22.45;37.11;95302.53;6165453;28;103563;-76
2022/09/23 10:47:56;;;;;;;3.43;3.23;;;;;;;22.41;37.07;95297.00;6165740;28;106604;-76
2022/09/23 10:51:00;;;;;;;3.10;2.90;;;;;;;22.40;36.86;95303.44;6166022;28;103271;-76
2022/09/23 10:54:13;;;;;;;3.57;3.37;;;;;;;22.39;36.70;95293.88;6158293;28;105536;-77
2022/09/23 11:01:02;;;;;;;3.23;3.03;;;;;;;22.31;36.94;95292.69;6165606;28;106660;-76
2022/09/23 11:04:19;;;;;;;3.30;3.10;;;;;;;22.34;36.83;95292.06;6162642;28;103327;-76
2022/09/23 11:07:34;;;;;;;3.53;3.33;;;;;;;22.31;37.06;95282.03;6162271;28;106260;-76
2022/09/23 11:11:10;;;;;;;3.30;3.10;;;;;;;22.30;37.14;95274.31;6165188;28;103994;-76
2022/09/23 11:14:29;;;;;;;3.07;2.87;;;;;;;22.27;36.68;95266.94;6165500;28;104138;-76
2022/09/23 11:17:51;;;;;;;3.27;3.07;;;;;;;22.26;36.86;95262.69;6159143;28;104121;-76
2022/09/23 11:21:01;;;;;;;3.10;2.90;;;;;;;22.26;37.12;95260.03;6165154;28;105485;-77
2022/09/23 11:24:28;;;;;;;3.43;3.23;;;;;;;22.22;37.38;95267.06;6164708;28;103864;-76
2022/09/23 11:27:48;;;;;;;3.17;2.97;;;;;;;22.19;36.93;95259.66;6158503;28;103552;-77
2022/09/23 11:31:05;;;;;;;3.73;3.43;;;;;;;22.13;37.50;95253.66;6165204;28;106239;-77
2022/09/23 11:34:32;;;;;;;3.70;3.50;;;;;;;22.13;37.15;95264.31;6164641;28;103538;-76
2022/09/23 11:37:41;;;;;;;3.40;3.20;;;;;;;22.10;37.16;95254.25;6164563;28;105325;-76
2022/09/23 11:40:53;;;;;;;3.40;3.20;;;;;;;22.09;37.10;95252.66;6157738;28;106878;-76
2022/09/23 11:44:03;;;;;;;3.30;3.10;;;;;;;22.06;37.44;95239.94;6164669;28;103487;-76
2022/09/23 11:47:09;;;;;;;3.83;3.53;;;;;;;22.03;37.45;95237.91;6164456;28;103514;-76
2022/09/23 11:50:22;;;;;;;3.20;3.00;;;;;;;22.03;37.47;95244.00;6158253;28;105377;-78
2022/09/23 11:53:36;;;;;;;3.47;3.27;;;;;;;22.01;37.54;95230.19;6164102;28;104216;-78
2022/09/23 11:56:45;;;;;;;3.37;3.13;;;;;;;22.00;37.39;95233.13;6164141;28;104041;-76
2022/09/23 11:59:59;;;;;;;3.37;3.17;;;;;;;21.98;37.60;95237.97;6163471;28;103259;-76
2022/09/23 12:03:09;;;;;;;3.60;3.40;;;;;;;21.96;37.60;95238.28;6158175;28;104380;-76
2022/09/23 12:06:15;;;;;;;3.43;3.23;;;;;;;21.92;37.25;95229.31;6164158;28;103979;-76
2022/09/23 12:09:24;;;;;;;3.17;2.97;;;;;;;21.95;37.36;95236.72;6164213;28;103337;-78
2022/09/23 12:12:58;;;;;;;3.87;3.60;;;;;;;21.93;37.80;95228.22;6158408;28;106626;-75
2022/09/23 12:16:24;;;;;;;3.40;3.20;;;;;;;21.89;37.56;95221.16;6163700;28;103347;-75
2022/09/23 12:19:50;;;;;;;3.80;3.50;;;;;;;21.90;37.49;95226.16;6164204;28;106311;-78
2022/09/23 12:23:04;;;;;;;3.53;3.30;;;;;;;21.85;37.32;95220.19;6164568;28;103394;-77
2022/09/23 12:26:13;;;;;;;3.07;2.87;;;;;;;21.91;37.35;95234.94;6158761;28;103574;-76
2022/09/23 12:29:17;;;;;;;3.80;3.50;;;;;;;21.89;37.86;95231.81;6165209;28;103406;-77
2022/09/23 12:32:25;;;;;;;3.97;3.67;;;;;;;21.85;37.26;95223.63;6163595;28;103312;-77
2022/09/23 12:35:36;;;;;;;3.87;3.63;;;;;;;21.89;37.21;95227.25;6159381;28;103992;-77
2022/09/23 12:38:46;;;;;;;3.50;3.30;;;;;;;21.83;37.58;95225.78;6163719;28;103064;-76
2022/09/23 12:41:57;;;;;;;3.50;3.30;;;;;;;21.85;37.36;95230.84;6163773;28;102617;-76
2022/09/23 12:45:33;;;;;;;3.77;3.57;;;;;;;21.79;37.63;95227.44;6164365;28;103404;-77
2022/09/23 12:48:47;;;;;;;3.63;3.43;;;;;;;21.83;37.43;95227.66;6156862;28;105970;-77
2022/09/23 12:52:25;;;;;;;3.90;3.60;;;;;;;21.80;37.54;95234.34;6163024;28;103392;-77
2022/09/23 12:55:50;;;;;;;3.87;3.57;;;;;;;21.80;37.65;95231.69;6163183;28;107065;-76
2022/09/23 12:59:28;;;;;;;3.40;3.20;;;;;;;21.78;38.01;95231.19;6157314;28;107403;-76
2022/09/23 13:02:37;;;;;;;3.27;3.07;;;;;;;21.79;37.60;95233.56;6116954;28;103521;-76
2022/09/23 13:09:13;;;;;;;3.20;3.00;;;;;;;21.75;37.67;95229.91;6164430;28;104864;-75
2022/09/23 13:12:20;;;;;;;3.47;3.27;;;;;;;21.76;37.94;95228.81;6166371;28;104821;-76
2022/09/23 13:15:29;;;;;;;3.10;2.90;;;;;;;21.76;37.65;95230.69;6167173;28;103289;-76
2022/09/23 13:18:57;;;;;;;3.53;3.33;;;;;;;21.76;37.54;95230.69;6167161;28;103054;-76
2022/09/23 13:22:07;;;;;;;3.77;3.47;;;;;;;21.73;37.85;95226.75;6159688;28;103199;-76
2022/09/23 13:25:19;;;;;;;3.27;3.07;;;;;;;21.75;37.71;95226.47;6166972;28;106159;-76
2022/09/23 13:28:29;;;;;;;3.50;3.30;;;;;;;21.73;37.97;95244.63;6167439;28;104056;-77
2022/09/23 13:31:34;;;;;;;3.47;3.27;;;;;;;21.71;37.71;95225.50;6164129;28;105265;-76
2022/09/23 13:34:40;;;;;;;3.20;2.97;;;;;;;21.70;37.55;95234.56;6163168;28;103377;-76
2022/09/23 13:37:46;;;;;;;3.70;3.47;;;;;;;21.68;37.54;95234.88;6165904;28;103103;-77
2022/09/23 13:40:50;;;;;;;3.47;3.27;;;;;;;21.61;37.82;95225.69;6167341;28;103076;-77
2022/09/23 13:43:57;;;;;;;3.47;3.27;;;;;;;21.66;37.98;95231.69;6159866;28;103229;-76
2022/09/23 13:47:02;;;;;;;3.30;3.10;;;;;;;21.66;38.05;95233.56;6166800;28;105537;-76
2022/09/23 13:50:11;;;;;;;2.93;2.73;;;;;;;21.67;37.65;95227.16;6166581;28;103414;-77
2022/09/23 13:53:23;;;;;;;4.33;4.03;;;;;;;21.65;37.73;95232.00;6166615;28;103112;-77
2022/09/23 13:56:29;;;;;;;3.23;3.03;;;;;;;21.61;37.69;95225.69;6160849;28;104000;-77
2022/09/23 13:59:38;;;;;;;3.40;3.20;;;;;;;21.64;37.78;95222.44;6166544;28;103188;-76
2022/09/23 14:02:43;;;;;;;3.30;3.10;;;;;;;21.64;37.91;95217.09;6166244;28;103129;-76
2022/09/23 14:05:47;;;;;;;3.30;3.10;;;;;;;21.62;37.72;95211.28;6162825;28;104072;-77
2022/09/23 14:08:52;;;;;;;3.30;3.07;;;;;;;21.62;37.81;95212.06;6163322;28;103450;-77
2022/09/23 14:11:58;;;;;;;3.33;3.10;;;;;;;21.60;37.60;95219.56;6165488;28;103054;-77
2022/09/23 14:15:01;;;;;;;3.20;3.00;;;;;;;21.62;38.22;95211.28;6166523;28;103465;-77
2022/09/23 14:18:07;;;;;;;3.07;2.87;;;;;;;21.63;38.00;95207.53;6159980;28;103161;-76
2022/09/23 14:21:33;;;;;;;2.97;2.77;;;;;;;21.61;38.19;95207.06;6165951;28;105325;-76
2022/09/23 14:24:38;;;;;;;3.03;2.83;;;;;;;21.61;37.96;95199.06;6166537;28;104697;-76
2022/09/23 14:27:43;;;;;;;2.73;2.53;;;;;;;21.60;37.85;95214.25;6166293;28;104868;-76
2022/09/23 14:30:47;;;;;;;3.27;3.07;;;;;;;21.61;37.70;95209.72;6160747;28;105161;-76
2022/09/23 14:33:50;;;;;;;3.27;3.07;;;;;;;21.57;38.08;95209.53;6166120;28;103599;-77
2022/09/23 14:40:18;;;;;;;3.07;2.87;;;;;;;21.61;38.30;95199.06;6159118;28;103394;-76
2022/09/23 14:43:24;;;;;;;3.77;3.47;;;;;;;21.59;37.79;95209.22;6165647;28;104034;-76
2022/09/23 14:46:32;;;;;;;3.10;2.90;;;;;;;21.57;38.21;95204.19;6165915;28;104481;-77
2022/09/23 14:49:35;;;;;;;2.90;2.70;;;;;;;21.50;37.83;95193.16;6165406;28;104161;-76
2022/09/23 14:52:48;;;;;;;3.53;3.33;;;;;;;21.55;37.87;95192.28;6159374;28;102750;-75